createdAt,value
2019-02-15T00:06:00.085Z,141.53
2019-02-15T00:16:01.624Z,162.03
2019-02-15T00:26:03.462Z,137.40
2019-02-15T00:36:04.876Z,129.17
2019-02-15T00:46:17.079Z,130.50
2019-02-15T00:56:33.345Z,151.20
2019-02-15T01:06:51.610Z,161.10
2019-02-15T01:16:53.104Z,146.40
2019-02-15T01:26:56.332Z,133.07
2019-02-15T01:37:11.631Z,142.57
2019-02-15T01:47:14.428Z,140.97
2019-02-15T01:57:18.095Z,127.93
2019-02-15T02:07:19.607Z,170.13
2019-02-15T02:17:21.229Z,152.53
2019-02-15T02:27:22.849Z,146.30
2019-02-15T02:37:24.265Z,208.60
2019-02-15T02:47:25.745Z,195.13
2019-02-15T02:57:28.206Z,188.87
2019-02-15T03:07:29.638Z,195.43
2019-02-15T03:17:31.173Z,192.93
2019-02-15T03:27:32.652Z,196.13
2019-02-15T03:37:35.869Z,190.23
2019-02-15T03:47:37.255Z,218.47
2019-02-15T03:57:39.873Z,204.37
2019-02-15T04:07:41.249Z,245.10
2019-02-15T04:17:42.812Z,207.97
2019-02-15T04:27:44.277Z,207.03
2019-02-15T04:37:45.601Z,203.30
2019-02-15T04:47:47.008Z,186.33
2019-02-15T04:57:49.437Z,181.10
2019-02-15T05:07:50.764Z,187.83
2019-02-15T05:17:52.313Z,186.27
2019-02-15T05:27:53.726Z,211.07
2019-02-15T05:37:55.097Z,176.93
2019-02-15T05:47:56.577Z,184.97
2019-02-15T05:57:59.056Z,205.00
2019-02-15T06:08:00.364Z,188.00
2019-02-15T06:18:01.773Z,172.40
2019-02-15T06:28:03.284Z,190.10
2019-02-15T06:38:04.614Z,184.93
2019-02-15T06:48:06.102Z,187.00
2019-02-15T06:58:09.343Z,172.37
2019-02-15T07:08:10.668Z,189.17
2019-02-15T07:18:12.193Z,185.70
2019-02-15T07:28:13.676Z,182.70
2019-02-15T07:38:15.080Z,175.50
2019-02-15T07:48:16.525Z,223.67
2019-02-15T07:58:20.014Z,176.57
2019-02-15T08:08:21.424Z,170.17
2019-02-15T08:18:22.963Z,204.40
2019-02-15T08:28:24.697Z,187.93
2019-02-15T08:38:27.465Z,121.47
2019-02-15T08:48:29.168Z,136.10
2019-02-15T08:58:31.888Z,87.03
2019-02-15T09:08:33.353Z,66.77
2019-02-15T09:18:34.881Z,39.90
2019-02-15T09:28:38.184Z,40.67
2019-02-15T09:38:39.575Z,61.20
2019-02-15T09:48:41.053Z,28.17
2019-02-15T09:58:43.520Z,20.97
2019-02-15T10:08:44.932Z,12.27
2019-02-15T10:18:46.528Z,11.57
2019-02-15T10:28:48.044Z,10.45
2019-02-15T10:38:49.416Z,11.63
2019-02-15T10:48:50.811Z,37.67
2019-02-15T10:58:53.209Z,13.50
2019-02-15T11:08:54.741Z,16.83
2019-02-15T11:18:56.256Z,9.83
2019-02-15T11:28:57.646Z,17.53
2019-02-15T11:38:59.068Z,14.97
2019-02-15T11:49:00.564Z,23.53
2019-02-15T11:59:03.021Z,30.00
2019-02-15T12:09:04.637Z,36.73
2019-02-15T12:19:07.580Z,19.53
2019-02-15T12:29:09.088Z,234.33
2019-02-15T12:39:12.858Z,21.07
2019-02-15T12:49:14.044Z,27.07
2019-02-15T12:59:18.048Z,20.17
2019-02-15T13:09:19.460Z,23.90
2019-02-15T13:19:21.005Z,20.20
2019-02-15T13:29:22.419Z,107.43
2019-02-15T13:39:23.856Z,98.67
2019-02-15T13:49:25.293Z,27.07
2019-02-15T13:59:27.769Z,51.03
2019-02-15T14:09:29.184Z,34.43
2019-02-15T14:19:30.773Z,28.10
2019-02-15T14:29:32.189Z,24.40
2019-02-15T14:39:33.620Z,27.93
2019-02-15T14:49:35.099Z,25.07
2019-02-15T14:59:38.955Z,24.63
2019-02-15T15:09:40.505Z,26.87
2019-02-15T15:19:42.045Z,27.53
2019-02-15T15:29:43.833Z,24.30
2019-02-15T15:39:46.235Z,29.80
2019-02-15T15:49:47.654Z,45.93
2019-02-15T15:59:50.056Z,65.43
2019-02-15T16:09:51.486Z,91.30
2019-02-15T16:19:53.045Z,86.83
2019-02-15T16:29:56.396Z,65.43
2019-02-15T16:39:57.716Z,71.63
2019-02-15T16:49:59.129Z,95.77
2019-02-15T17:00:01.711Z,109.10
2019-02-15T17:10:07.239Z,94.77
2019-02-15T17:20:09.340Z,98.60
2019-02-15T17:30:11.447Z,127.17
2019-02-15T17:40:14.466Z,136.93
2019-02-15T17:50:15.959Z,95.80
2019-02-15T18:00:20.471Z,153.60
2019-02-15T18:10:21.877Z,90.10
2019-02-15T18:20:23.320Z,87.87
2019-02-15T18:30:24.816Z,113.10
2019-02-15T18:40:26.249Z,96.13
2019-02-15T18:50:27.698Z,80.37
2019-02-15T19:00:30.356Z,158.67
2019-02-15T19:10:31.898Z,99.17
2019-02-15T19:20:33.546Z,82.40
2019-02-15T19:30:36.164Z,60.87
2019-02-15T19:40:37.842Z,405.77
2019-02-15T19:50:39.675Z,97.57
2019-02-15T20:00:43.245Z,65.63
2019-02-15T20:10:44.657Z,63.67
2019-02-15T20:20:46.109Z,72.23
2019-02-15T20:30:47.604Z,64.13
2019-02-15T20:40:49.125Z,66.17
2019-02-15T20:50:50.717Z,80.67
2019-02-15T21:00:56.104Z,70.33
2019-02-15T21:10:57.456Z,84.80
2019-02-15T21:20:59.173Z,122.77
2019-02-15T21:31:00.584Z,157.37
2019-02-15T21:41:02.005Z,124.50
2019-02-15T21:51:03.508Z,109.00
2019-02-15T22:01:06.777Z,129.63
2019-02-15T22:11:08.541Z,117.83
2019-02-15T22:21:10.115Z,115.87
2019-02-15T22:31:12.054Z,111.83
2019-02-15T22:41:13.709Z,118.30
2019-02-15T22:51:15.145Z,112.23
2019-02-15T23:01:18.453Z,126.83
2019-02-15T23:11:20.981Z,118.30
2019-02-15T23:21:22.509Z,105.10
2019-02-15T23:31:23.928Z,102.70
2019-02-15T23:41:25.346Z,104.47
2019-02-15T23:51:26.773Z,115.77
